Time;durP1;ratioP1;P1;durP2;ratioP2;P2;SDS_P1;SDS_P2;PMS_P1;PMS_P2;Temp;Humidity;BMP_temperature;BMP_pressure;BME280_temperature;BME280_humidity;BME280_pressure;Samples;Min_cycle;Max_cycle;Signal;HPM_P1;HPM_P2
2021/05/10 00:02:26;;;;;;;2.10;1.90;;;;;;;;;;5011469;28;20445;-66
2021/05/10 00:04:53;;;;;;;3.40;2.60;;;;;;;;;;5012701;28;20449;-67
2021/05/10 00:07:19;;;;;;;4.23;2.20;;;;;;;;;;5014354;28;20530;-66
2021/05/10 00:09:46;;;;;;;2.50;2.30;;;;;;;;;;5008822;28;20475;-67
2021/05/10 00:12:13;;;;;;;2.57;2.00;;;;;;;;;;4994637;28;20585;-67
2021/05/10 00:14:41;;;;;;;2.20;2.00;;;;;;;;;;4995148;28;20446;-64
2021/05/10 00:17:09;;;;;;;2.50;2.30;;;;;;;;;;5012375;28;20539;-64
2021/05/10 00:19:35;;;;;;;2.40;2.20;;;;;;;;;;5011258;28;20500;-64
2021/05/10 00:22:02;;;;;;;3.80;2.30;;;;;;;;;;5003828;28;20445;-66
2021/05/10 00:24:28;;;;;;;2.60;2.40;;;;;;;;;;5013632;28;20449;-66
2021/05/10 00:26:55;;;;;;;3.73;2.43;;;;;;;;;;5014186;28;20454;-64
2021/05/10 00:29:22;;;;;;;2.90;2.60;;;;;;;;;;5013795;28;21022;-64
2021/05/10 00:31:48;;;;;;;2.53;1.90;;;;;;;;;;5006280;28;20481;-67
2021/05/10 00:34:16;;;;;;;2.40;2.20;;;;;;;;;;5000087;28;20984;-66
2021/05/10 00:36:43;;;;;;;2.13;1.93;;;;;;;;;;5012394;28;20458;-64
2021/05/10 00:39:10;;;;;;;3.47;2.60;;;;;;;;;;5017962;28;20561;-65
2021/05/10 00:41:37;;;;;;;2.43;2.00;;;;;;;;;;5026293;28;20450;-65
2021/05/10 00:44:04;;;;;;;3.30;2.27;;;;;;;;;;5008117;28;20465;-67
2021/05/10 00:46:30;;;;;;;2.10;1.83;;;;;;;;;;5012661;28;20449;-64
2021/05/10 00:48:57;;;;;;;2.23;1.90;;;;;;;;;;5000442;28;20460;-66
2021/05/10 00:51:24;;;;;;;3.20;2.10;;;;;;;;;;5013998;28;20489;-67
2021/05/10 00:53:51;;;;;;;2.83;2.30;;;;;;;;;;5002144;28;20546;-66
2021/05/10 00:56:18;;;;;;;2.40;2.20;;;;;;;;;;4993843;28;20455;-67
2021/05/10 00:58:45;;;;;;;2.20;2.00;;;;;;;;;;4997181;28;20458;-67
2021/05/10 01:01:12;;;;;;;2.40;2.20;;;;;;;;;;5013625;28;20466;-66
2021/05/10 01:03:38;;;;;;;2.70;2.30;;;;;;;;;;5011063;28;20485;-65
2021/05/10 01:06:05;;;;;;;2.73;1.97;;;;;;;;;;5013490;28;20457;-66
2021/05/10 01:08:33;;;;;;;3.10;2.37;;;;;;;;;;5006164;28;20512;-65
2021/05/10 01:10:59;;;;;;;2.80;2.30;;;;;;;;;;4993536;28;20984;-65
2021/05/10 01:13:26;;;;;;;2.30;2.10;;;;;;;;;;4994169;28;20454;-65
2021/05/10 01:15:53;;;;;;;2.90;2.30;;;;;;;;;;4993695;28;20457;-66
2021/05/10 01:18:19;;;;;;;2.30;2.20;;;;;;;;;;4996979;28;20565;-66
2021/05/10 01:20:47;;;;;;;2.20;2.00;;;;;;;;;;4998189;28;20572;-67
2021/05/10 01:23:15;;;;;;;2.37;2.03;;;;;;;;;;4996439;28;20525;-66
2021/05/10 01:25:42;;;;;;;4.47;2.47;;;;;;;;;;4994579;28;20451;-66
2021/05/10 01:28:09;;;;;;;2.50;2.10;;;;;;;;;;4993622;28;20461;-66
2021/05/10 01:30:36;;;;;;;4.03;2.17;;;;;;;;;;4993386;28;20474;-66
2021/05/10 01:33:04;;;;;;;2.97;2.27;;;;;;;;;;4997030;28;20482;-66
2021/05/10 01:35:32;;;;;;;3.07;2.23;;;;;;;;;;4993211;28;20828;-66
2021/05/10 01:37:59;;;;;;;2.40;2.20;;;;;;;;;;4993549;28;20449;-66
2021/05/10 01:40:27;;;;;;;2.40;1.93;;;;;;;;;;4996621;28;20486;-66
2021/05/10 01:42:54;;;;;;;4.70;1.93;;;;;;;;;;4998276;28;20446;-66
2021/05/10 01:45:20;;;;;;;2.30;2.10;;;;;;;;;;5002921;28;20483;-66
2021/05/10 01:47:47;;;;;;;5.20;2.00;;;;;;;;;;4992970;28;20961;-66
2021/05/10 01:50:15;;;;;;;2.33;1.50;;;;;;;;;;5003008;28;20470;-66
2021/05/10 01:52:41;;;;;;;2.37;2.17;;;;;;;;;;4992970;28;20490;-67
2021/05/10 01:55:08;;;;;;;2.83;2.07;;;;;;;;;;5003742;28;20453;-67
2021/05/10 01:57:36;;;;;;;1.87;1.70;;;;;;;;;;5010429;28;20464;-67
2021/05/10 02:00:06;;;;;;;3.50;2.20;;;;;;;;;;5011656;28;20886;-67
2021/05/10 02:02:33;;;;;;;2.10;1.90;;;;;;;;;;5004615;28;20946;-66
2021/05/10 02:05:20;;;;;;;4.30;2.10;;;;;;;;;;5005649;28;20496;-66
2021/05/10 02:07:48;;;;;;;3.77;1.87;;;;;;;;;;5006435;28;20548;-66
2021/05/10 02:10:16;;;;;;;2.10;1.63;;;;;;;;;;4998136;28;20466;-66
2021/05/10 02:12:52;;;;;;;3.23;2.20;;;;;;;;;;4992849;28;20561;-66
2021/05/10 02:15:18;;;;;;;2.47;1.77;;;;;;;;;;4996709;28;20438;-66
2021/05/10 02:17:45;;;;;;;2.07;1.80;;;;;;;;;;4992660;28;20513;-66
2021/05/10 02:20:12;;;;;;;3.40;1.77;;;;;;;;;;5009927;28;20473;-66
2021/05/10 02:22:38;;;;;;;2.20;2.00;;;;;;;;;;5012208;28;20453;-66
2021/05/10 02:25:05;;;;;;;2.70;2.23;;;;;;;;;;5011654;28;20450;-66
2021/05/10 02:27:32;;;;;;;5.67;2.37;;;;;;;;;;5011887;28;20446;-66
2021/05/10 02:29:59;;;;;;;2.80;2.27;;;;;;;;;;5011000;28;20481;-66
2021/05/10 02:32:26;;;;;;;6.90;2.70;;;;;;;;;;5000899;28;20545;-67
2021/05/10 02:34:53;;;;;;;2.83;2.20;;;;;;;;;;4993496;28;20462;-67
2021/05/10 02:37:19;;;;;;;4.53;2.37;;;;;;;;;;4992307;28;20950;-66
2021/05/10 02:39:46;;;;;;;3.60;2.10;;;;;;;;;;5004783;28;20492;-66
2021/05/10 02:42:12;;;;;;;2.77;2.20;;;;;;;;;;5042041;22;20495;-60
2021/05/10 02:44:40;;;;;;;4.60;2.00;;;;;;;;;;5046340;28;20456;-61
2021/05/10 02:47:08;;;;;;;4.80;2.10;;;;;;;;;;5050199;28;20447;-60
2021/05/10 02:49:34;;;;;;;2.80;2.10;;;;;;;;;;5050783;28;20462;-60
2021/05/10 02:52:01;;;;;;;2.20;2.00;;;;;;;;;;5049640;28;20491;-60
2021/05/10 02:54:27;;;;;;;2.43;2.23;;;;;;;;;;5031575;28;20452;-61
2021/05/10 02:56:54;;;;;;;3.30;1.80;;;;;;;;;;5036919;28;20452;-61
2021/05/10 02:59:21;;;;;;;3.00;2.27;;;;;;;;;;5050641;28;20460;-60
2021/05/10 03:01:47;;;;;;;2.80;2.60;;;;;;;;;;5051478;28;20526;-60
2021/05/10 03:04:15;;;;;;;2.97;2.40;;;;;;;;;;5054779;28;20459;-61
2021/05/10 03:06:41;;;;;;;2.90;1.90;;;;;;;;;;5054918;28;20455;-60
2021/05/10 03:09:08;;;;;;;3.43;2.20;;;;;;;;;;5038801;28;20479;-61
2021/05/10 03:11:34;;;;;;;2.13;1.90;;;;;;;;;;5036226;28;20496;-61
2021/05/10 03:14:01;;;;;;;3.10;2.30;;;;;;;;;;5052424;28;20447;-61
2021/05/10 03:16:28;;;;;;;1.80;1.60;;;;;;;;;;5057028;28;20513;-61
2021/05/10 03:18:54;;;;;;;2.47;2.20;;;;;;;;;;5040821;28;20462;-61
2021/05/10 03:21:22;;;;;;;3.53;2.10;;;;;;;;;;5053656;28;20475;-61
2021/05/10 03:23:48;;;;;;;3.90;2.40;;;;;;;;;;5054759;28;20460;-62
2021/05/10 03:26:15;;;;;;;3.60;2.47;;;;;;;;;;5036704;28;20467;-61
2021/05/10 03:28:41;;;;;;;4.67;2.13;;;;;;;;;;5035368;28;20449;-61
2021/05/10 03:31:08;;;;;;;8.27;2.40;;;;;;;;;;5050141;28;20455;-61
2021/05/10 03:33:35;;;;;;;2.90;2.23;;;;;;;;;;5036378;28;20522;-61
2021/05/10 03:36:01;;;;;;;3.37;1.87;;;;;;;;;;5049333;28;20456;-61
2021/05/10 03:38:29;;;;;;;3.90;2.30;;;;;;;;;;5053218;28;20491;-61
2021/05/10 03:40:55;;;;;;;3.03;2.03;;;;;;;;;;5054014;28;20459;-61
2021/05/10 03:43:22;;;;;;;2.90;2.27;;;;;;;;;;5044765;28;20960;-60
2021/05/10 03:45:48;;;;;;;3.50;2.10;;;;;;;;;;5034396;28;20448;-61
2021/05/10 03:48:15;;;;;;;2.40;2.20;;;;;;;;;;5036347;28;20458;-60
2021/05/10 03:50:42;;;;;;;2.00;1.60;;;;;;;;;;5034854;28;20449;-60
2021/05/10 03:53:08;;;;;;;2.73;1.80;;;;;;;;;;5043011;28;20490;-60
2021/05/10 03:55:37;;;;;;;2.97;2.27;;;;;;;;;;5054017;28;20958;-60
2021/05/10 03:58:04;;;;;;;5.70;1.83;;;;;;;;;;5053591;28;20482;-60
2021/05/10 04:00:30;;;;;;;3.87;2.10;;;;;;;;;;5054784;28;20459;-60
2021/05/10 04:02:59;;;;;;;3.93;2.27;;;;;;;;;;5051686;28;20837;-60
2021/05/10 04:05:42;;;;;;;2.07;1.87;;;;;;;;;;5052719;28;20462;-60
2021/05/10 04:08:21;;;;;;;3.30;2.17;;;;;;;;;;5048838;28;20441;-60
2021/05/10 04:10:57;;;;;;;3.30;2.10;;;;;;;;;;5034187;28;21114;-60
2021/05/10 04:13:37;;;;;;;2.40;2.10;;;;;;;;;;5037605;28;20951;-60
2021/05/10 04:16:04;;;;;;;2.00;1.80;;;;;;;;;;5034412;28;21010;-60
2021/05/10 04:18:30;;;;;;;2.20;1.83;;;;;;;;;;5044507;28;20452;-60
2021/05/10 04:20:57;;;;;;;3.80;2.00;;;;;;;;;;5047685;28;20452;-60
2021/05/10 04:23:24;;;;;;;2.20;1.90;;;;;;;;;;5045642;28;20505;-62
2021/05/10 04:25:53;;;;;;;3.00;1.80;;;;;;;;;;5054399;28;20822;-63
2021/05/10 04:28:20;;;;;;;2.37;1.77;;;;;;;;;;5048562;28;20459;-62
2021/05/10 04:30:47;;;;;;;2.50;2.20;;;;;;;;;;5054106;28;20447;-62
2021/05/10 04:33:14;;;;;;;2.40;1.73;;;;;;;;;;5050997;28;21008;-62
2021/05/10 04:35:40;;;;;;;2.80;1.80;;;;;;;;;;5053092;28;20458;-62
2021/05/10 04:38:09;;;;;;;3.60;2.10;;;;;;;;;;5045464;28;20457;-62
2021/05/10 04:40:36;;;;;;;2.57;2.03;;;;;;;;;;5034373;28;20482;-62
2021/05/10 04:43:03;;;;;;;2.47;1.73;;;;;;;;;;5035518;28;20999;-62
2021/05/10 04:45:30;;;;;;;2.77;2.03;;;;;;;;;;5033895;28;20449;-62
2021/05/10 04:47:56;;;;;;;3.00;1.60;;;;;;;;;;5039256;28;20812;-63
2021/05/10 04:50:23;;;;;;;2.47;2.27;;;;;;;;;;5053706;28;20505;-62
2021/05/10 04:52:50;;;;;;;3.30;1.60;;;;;;;;;;5049651;28;20480;-62
2021/05/10 04:55:17;;;;;;;3.60;2.13;;;;;;;;;;5033389;28;20510;-62
2021/05/10 04:57:44;;;;;;;3.97;2.07;;;;;;;;;;5035319;28;20506;-62
2021/05/10 05:00:13;;;;;;;4.33;2.30;;;;;;;;;;5053502;28;20490;-63
2021/05/10 05:02:40;;;;;;;7.90;2.00;;;;;;;;;;5046932;28;20540;-63
2021/05/10 05:05:08;;;;;;;4.30;2.10;;;;;;;;;;5033298;28;20478;-63
2021/05/10 05:07:34;;;;;;;2.17;1.93;;;;;;;;;;5037939;28;20456;-63
2021/05/10 05:10:01;;;;;;;2.57;2.10;;;;;;;;;;5042642;28;20452;-63
2021/05/10 05:12:28;;;;;;;3.43;1.97;;;;;;;;;;5049083;28;20987;-62
2021/05/10 05:14:54;;;;;;;2.30;1.80;;;;;;;;;;5033233;28;20449;-63
2021/05/10 05:17:22;;;;;;;4.33;2.40;;;;;;;;;;5034002;28;20457;-64
2021/05/10 05:19:48;;;;;;;3.60;2.00;;;;;;;;;;5049439;28;20455;-63
2021/05/10 05:22:15;;;;;;;5.97;2.50;;;;;;;;;;5038620;28;20883;-63
2021/05/10 05:24:41;;;;;;;3.13;1.93;;;;;;;;;;5052386;28;20452;-64
2021/05/10 05:27:08;;;;;;;3.30;2.60;;;;;;;;;;5038156;28;20514;-63
2021/05/10 05:29:35;;;;;;;6.10;2.67;;;;;;;;;;5047927;28;20471;-63
2021/05/10 05:32:01;;;;;;;3.63;2.10;;;;;;;;;;5051128;28;20502;-63
2021/05/10 05:34:29;;;;;;;2.60;2.27;;;;;;;;;;5045522;28;20970;-63
2021/05/10 05:36:55;;;;;;;3.33;2.30;;;;;;;;;;5032775;28;20449;-63
2021/05/10 05:39:22;;;;;;;3.87;2.20;;;;;;;;;;5051916;28;20462;-63
2021/05/10 05:41:49;;;;;;;6.90;2.27;;;;;;;;;;5052584;28;20479;-63
2021/05/10 05:44:15;;;;;;;4.63;2.10;;;;;;;;;;5047170;28;20459;-63
2021/05/10 05:46:44;;;;;;;3.80;2.40;;;;;;;;;;5051827;28;20530;-63
2021/05/10 05:49:11;;;;;;;3.00;2.47;;;;;;;;;;5037127;28;20465;-63
2021/05/10 05:51:38;;;;;;;5.07;2.70;;;;;;;;;;5037864;28;20554;-60
2021/05/10 05:54:05;;;;;;;2.73;2.53;;;;;;;;;;5052384;28;20478;-60
2021/05/10 05:56:32;;;;;;;3.50;2.00;;;;;;;;;;5047725;28;20456;-60
2021/05/10 05:58:58;;;;;;;2.90;2.37;;;;;;;;;;5036853;28;20457;-61
2021/05/10 06:01:25;;;;;;;2.57;2.27;;;;;;;;;;5032533;28;21061;-60
2021/05/10 06:03:53;;;;;;;2.73;2.03;;;;;;;;;;5032615;28;20834;-60
2021/05/10 06:06:19;;;;;;;3.80;2.00;;;;;;;;;;5032537;28;20475;-60
2021/05/10 06:08:47;;;;;;;2.57;2.20;;;;;;;;;;5032783;28;20457;-60
2021/05/10 06:11:13;;;;;;;2.50;2.00;;;;;;;;;;5032053;28;20556;-59
2021/05/10 06:13:40;;;;;;;4.40;2.93;;;;;;;;;;5032345;28;20540;-63
2021/05/10 06:16:07;;;;;;;3.20;2.90;;;;;;;;;;5040005;28;20462;-65
2021/05/10 06:18:34;;;;;;;5.03;3.37;;;;;;;;;;5050485;28;20448;-62
2021/05/10 06:21:01;;;;;;;4.70;2.60;;;;;;;;;;5040164;28;20447;-62
2021/05/10 06:23:28;;;;;;;8.33;3.13;;;;;;;;;;5042462;28;20460;-61
2021/05/10 06:25:56;;;;;;;6.37;2.83;;;;;;;;;;5049302;28;21045;-61
2021/05/10 06:28:22;;;;;;;6.33;3.00;;;;;;;;;;5050025;28;20455;-61
2021/05/10 06:30:49;;;;;;;6.20;3.00;;;;;;;;;;5050476;28;20824;-60
2021/05/10 06:33:15;;;;;;;8.23;3.13;;;;;;;;;;5051277;28;20985;-60
2021/05/10 06:35:43;;;;;;;5.40;3.20;;;;;;;;;;5046003;28;20843;-62
2021/05/10 06:38:12;;;;;;;3.37;3.03;;;;;;;;;;5043877;28;20455;-62
2021/05/10 06:40:39;;;;;;;5.17;3.27;;;;;;;;;;5051737;28;21033;-61
2021/05/10 06:43:07;;;;;;;3.70;2.80;;;;;;;;;;5044826;28;20477;-62
2021/05/10 06:45:33;;;;;;;3.77;2.73;;;;;;;;;;5049227;28;20458;-62
2021/05/10 06:48:00;;;;;;;4.90;2.90;;;;;;;;;;5050028;28;20490;-62
2021/05/10 06:50:26;;;;;;;5.13;3.10;;;;;;;;;;5051507;28;20452;-64
2021/05/10 06:52:53;;;;;;;6.87;3.27;;;;;;;;;;5050996;28;20542;-64
2021/05/10 06:55:20;;;;;;;4.30;3.10;;;;;;;;;;5051656;28;20520;-64
2021/05/10 06:57:46;;;;;;;4.97;2.97;;;;;;;;;;5051334;28;20444;-64
2021/05/10 07:00:15;;;;;;;5.10;2.90;;;;;;;;;;5051242;28;20444;-64
2021/05/10 07:02:41;;;;;;;6.57;2.83;;;;;;;;;;5034514;28;20467;-64
2021/05/10 07:05:08;;;;;;;11.67;3.00;;;;;;;;;;5051966;28;20815;-63
2021/05/10 07:07:36;;;;;;;9.10;3.27;;;;;;;;;;5051584;28;20836;-64
2021/05/10 07:10:03;;;;;;;8.70;3.23;;;;;;;;;;5051514;28;20456;-65
2021/05/10 07:12:29;;;;;;;4.00;2.73;;;;;;;;;;5050162;28;20479;-64
2021/05/10 07:14:56;;;;;;;3.70;2.57;;;;;;;;;;5042827;28;20445;-64
2021/05/10 07:17:23;;;;;;;3.67;2.63;;;;;;;;;;5036739;28;20452;-64
2021/05/10 07:19:50;;;;;;;3.03;2.73;;;;;;;;;;5050968;28;20950;-63
2021/05/10 07:22:17;;;;;;;4.50;2.87;;;;;;;;;;5050372;28;20491;-64
2021/05/10 07:24:43;;;;;;;6.43;2.87;;;;;;;;;;5051696;28;20451;-63
2021/05/10 07:27:10;;;;;;;6.47;3.43;;;;;;;;;;5035529;28;20829;-64
2021/05/10 07:29:37;;;;;;;3.50;3.10;;;;;;;;;;5044281;28;20456;-64
2021/05/10 07:32:04;;;;;;;5.00;2.90;;;;;;;;;;5037556;28;20484;-63
2021/05/10 07:34:31;;;;;;;5.37;3.10;;;;;;;;;;5031852;28;20455;-63
2021/05/10 07:36:58;;;;;;;4.10;2.30;;;;;;;;;;5034246;28;20448;-63
2021/05/10 07:39:24;;;;;;;3.80;2.73;;;;;;;;;;5049878;28;20818;-63
2021/05/10 07:41:51;;;;;;;4.37;2.90;;;;;;;;;;5051259;28;20482;-64
2021/05/10 07:44:18;;;;;;;5.50;3.90;;;;;;;;;;5035942;28;20460;-64
2021/05/10 07:46:44;;;;;;;3.10;2.80;;;;;;;;;;5040583;28;20455;-64
2021/05/10 07:49:11;;;;;;;4.73;3.13;;;;;;;;;;5045472;28;20467;-63
2021/05/10 07:51:38;;;;;;;5.13;3.43;;;;;;;;;;5052371;28;21143;-64
2021/05/10 07:54:05;;;;;;;3.73;3.33;;;;;;;;;;5053641;28;20455;-63
2021/05/10 07:56:32;;;;;;;4.80;3.50;;;;;;;;;;5053126;28;20463;-64
2021/05/10 07:59:00;;;;;;;3.97;2.80;;;;;;;;;;5054613;28;20447;-64
2021/05/10 08:01:27;;;;;;;3.90;2.50;;;;;;;;;;5051456;28;20487;-64
2021/05/10 08:03:54;;;;;;;4.77;2.33;;;;;;;;;;5040049;28;20460;-64
2021/05/10 08:06:20;;;;;;;3.13;2.83;;;;;;;;;;5041255;28;20452;-64
2021/05/10 08:08:48;;;;;;;3.30;2.67;;;;;;;;;;5038337;28;21010;-63
2021/05/10 08:11:14;;;;;;;3.40;2.67;;;;;;;;;;5034071;28;20502;-64
2021/05/10 08:13:41;;;;;;;3.30;2.60;;;;;;;;;;5049535;28;20513;-63
2021/05/10 08:16:08;;;;;;;7.30;2.50;;;;;;;;;;5053574;28;20498;-64
2021/05/10 08:18:41;;;;;;;7.50;2.17;;;;;;;;;;5036395;28;21050;-64
2021/05/10 08:21:07;;;;;;;3.93;2.67;;;;;;;;;;5050042;28;20912;-63
2021/05/10 08:23:34;;;;;;;10.13;3.30;;;;;;;;;;5034897;28;20449;-64
2021/05/10 08:26:01;;;;;;;3.87;2.60;;;;;;;;;;5034576;28;20447;-64
2021/05/10 08:28:28;;;;;;;4.33;3.27;;;;;;;;;;5037331;28;20453;-61
2021/05/10 08:30:55;;;;;;;4.07;2.90;;;;;;;;;;5046007;28;20448;-59
2021/05/10 08:33:21;;;;;;;4.33;2.30;;;;;;;;;;5059069;28;20484;-58
2021/05/10 08:35:48;;;;;;;6.20;2.60;;;;;;;;;;5051035;28;20501;-58
2021/05/10 08:38:15;;;;;;;5.43;2.40;;;;;;;;;;5054539;28;20451;-59
2021/05/10 08:40:41;;;;;;;5.17;2.70;;;;;;;;;;5052649;28;20448;-59
2021/05/10 08:43:18;;;;;;;4.63;2.77;;;;;;;;;;5048258;28;20538;-59
2021/05/10 08:45:46;;;;;;;4.63;3.30;;;;;;;;;;5033317;28;20428;-58
2021/05/10 08:48:14;;;;;;;6.50;2.93;;;;;;;;;;5039731;28;20452;-58
2021/05/10 08:50:40;;;;;;;6.33;3.37;;;;;;;;;;5052121;28;20451;-58
2021/05/10 08:53:07;;;;;;;3.73;2.97;;;;;;;;;;5049658;28;20487;-59
2021/05/10 08:55:33;;;;;;;8.80;3.50;;;;;;;;;;5033420;28;20453;-58
2021/05/10 08:58:00;;;;;;;5.20;2.50;;;;;;;;;;5044372;28;20538;-58
2021/05/10 09:00:27;;;;;;;5.23;2.67;;;;;;;;;;5053053;28;20766;-59
2021/05/10 09:03:06;;;;;;;4.30;2.40;;;;;;;;;;5049438;28;20468;-58
2021/05/10 09:05:45;;;;;;;3.87;2.70;;;;;;;;;;5033464;28;20457;-59
2021/05/10 09:08:11;;;;;;;4.70;2.57;;;;;;;;;;5034499;28;20992;-59
2021/05/10 09:10:38;;;;;;;3.77;2.30;;;;;;;;;;5052360;28;20452;-59
2021/05/10 09:13:05;;;;;;;2.43;2.23;;;;;;;;;;5051472;28;20501;-60
2021/05/10 09:15:33;;;;;;;5.63;2.20;;;;;;;;;;5050692;28;20955;-60
2021/05/10 09:18:01;;;;;;;3.47;1.90;;;;;;;;;;5049520;28;20452;-59
2021/05/10 09:20:28;;;;;;;4.40;2.97;;;;;;;;;;5043129;28;20456;-59
2021/05/10 09:22:56;;;;;;;3.20;2.20;;;;;;;;;;5052402;28;20460;-59
2021/05/10 09:25:29;;;;;;;4.43;1.70;;;;;;;;;;5044958;28;20448;-59
2021/05/10 09:28:09;;;;;;;3.57;1.57;;;;;;;;;;5040962;28;20974;-59
2021/05/10 09:30:37;;;;;;;5.37;2.67;;;;;;;;;;5041628;28;20452;-59
2021/05/10 09:33:04;;;;;;;4.03;2.00;;;;;;;;;;5036757;28;20488;-59
2021/05/10 09:35:31;;;;;;;3.40;1.87;;;;;;;;;;5033706;28;20449;-59
2021/05/10 09:37:58;;;;;;;5.47;2.50;;;;;;;;;;5048276;28;20459;-59
2021/05/10 09:40:27;;;;;;;3.43;1.83;;;;;;;;;;5052898;28;20444;-59
2021/05/10 09:42:55;;;;;;;3.10;1.37;;;;;;;;;;5049721;28;20840;-59
2021/05/10 09:45:28;;;;;;;2.77;1.80;;;;;;;;;;5051510;28;20460;-59
2021/05/10 09:48:04;;;;;;;2.87;1.70;;;;;;;;;;5046797;28;20448;-59
2021/05/10 09:50:34;;;;;;;3.87;1.80;;;;;;;;;;5052196;28;20465;-59
2021/05/10 09:53:02;;;;;;;2.87;1.80;;;;;;;;;;5037819;28;20489;-59
2021/05/10 09:55:44;;;;;;;3.63;1.80;;;;;;;;;;5032074;28;20544;-59
2021/05/10 09:58:11;;;;;;;2.87;2.00;;;;;;;;;;5046450;28;20448;-59
2021/05/10 10:00:38;;;;;;;2.77;1.50;;;;;;;;;;5034246;28;20461;-59
2021/05/10 10:03:06;;;;;;;5.77;1.70;;;;;;;;;;5032291;28;20472;-59
2021/05/10 10:05:33;;;;;;;6.00;2.27;;;;;;;;;;5031922;28;20455;-60
2021/05/10 10:08:01;;;;;;;3.33;1.70;;;;;;;;;;5032439;28;20453;-59
2021/05/10 10:10:28;;;;;;;4.07;1.30;;;;;;;;;;5031903;28;20502;-59
2021/05/10 10:12:54;;;;;;;2.73;1.60;;;;;;;;;;5038053;28;20594;-59
2021/05/10 10:15:21;;;;;;;2.97;1.90;;;;;;;;;;5049984;28;20451;-59
2021/05/10 10:17:48;;;;;;;3.00;1.33;;;;;;;;;;5044409;28;20462;-59
2021/05/10 10:20:15;;;;;;;2.30;1.70;;;;;;;;;;5041497;28;20453;-59
2021/05/10 10:22:42;;;;;;;3.90;1.97;;;;;;;;;;5032865;28;20472;-60
2021/05/10 10:25:09;;;;;;;1.70;1.60;;;;;;;;;;5049126;28;20479;-60
2021/05/10 10:27:37;;;;;;;2.17;1.60;;;;;;;;;;5049300;28;20471;-60
2021/05/10 10:30:04;;;;;;;4.77;1.70;;;;;;;;;;5035374;28;20456;-59
2021/05/10 10:32:31;;;;;;;3.93;1.90;;;;;;;;;;5047560;28;20479;-59
2021/05/10 10:34:58;;;;;;;2.60;1.87;;;;;;;;;;5046725;28;20483;-60
2021/05/10 10:37:26;;;;;;;3.90;1.90;;;;;;;;;;5051805;28;20455;-59
2021/05/10 10:39:53;;;;;;;7.03;3.47;;;;;;;;;;5036597;28;20457;-59
2021/05/10 10:42:22;;;;;;;2.87;1.87;;;;;;;;;;5031301;28;20991;-61
2021/05/10 10:44:54;;;;;;;3.73;2.30;;;;;;;;;;5042825;28;20455;-59
2021/05/10 10:47:36;;;;;;;3.97;1.90;;;;;;;;;;5051651;28;20462;-62
2021/05/10 10:50:03;;;;;;;2.90;2.13;;;;;;;;;;5046012;28;21021;-59
2021/05/10 10:52:31;;;;;;;3.87;2.20;;;;;;;;;;5048261;28;20570;-59
2021/05/10 10:55:14;;;;;;;4.80;2.20;;;;;;;;;;5051581;28;20526;-59
2021/05/10 10:57:41;;;;;;;8.00;2.53;;;;;;;;;;5049432;28;20477;-59
2021/05/10 11:00:08;;;;;;;5.93;2.20;;;;;;;;;;5041830;28;20441;-59
2021/05/10 11:02:40;;;;;;;4.20;2.70;;;;;;;;;;5031960;28;20484;-59
2021/05/10 11:05:08;;;;;;;4.67;2.30;;;;;;;;;;5043909;28;20538;-58
2021/05/10 11:07:48;;;;;;;2.60;2.30;;;;;;;;;;5048806;28;20460;-60
2021/05/10 11:10:29;;;;;;;5.67;2.47;;;;;;;;;;5051402;28;20470;-59
2021/05/10 11:12:56;;;;;;;4.20;2.20;;;;;;;;;;5034852;28;21042;-61
2021/05/10 11:15:42;;;;;;;2.93;1.80;;;;;;;;;;5048195;28;20448;-59
2021/05/10 11:18:09;;;;;;;3.03;2.10;;;;;;;;;;5034109;28;20460;-59
2021/05/10 11:20:39;;;;;;;6.30;2.50;;;;;;;;;;5032098;28;20963;-58
2021/05/10 11:23:30;;;;;;;4.50;2.03;;;;;;;;;;5050102;28;20464;-59
2021/05/10 11:25:57;;;;;;;3.17;2.30;;;;;;;;;;5054707;28;20874;-60
2021/05/10 11:28:43;;;;;;;2.80;1.83;;;;;;;;;;5050155;28;20451;-59
2021/05/10 11:31:10;;;;;;;3.30;1.93;;;;;;;;;;5043189;28;20443;-59
2021/05/10 11:33:56;;;;;;;4.80;2.10;;;;;;;;;;5054904;28;21053;-59
2021/05/10 11:36:23;;;;;;;2.70;1.80;;;;;;;;;;5054104;28;20450;-59
2021/05/10 11:38:52;;;;;;;3.20;2.23;;;;;;;;;;5055335;28;20443;-59
2021/05/10 11:41:19;;;;;;;3.70;2.13;;;;;;;;;;5040761;28;20474;-59
2021/05/10 11:43:45;;;;;;;2.90;2.07;;;;;;;;;;5052931;28;20444;-58
2021/05/10 11:46:12;;;;;;;4.30;2.00;;;;;;;;;;5051477;28;20455;-58
2021/05/10 11:48:42;;;;;;;2.87;1.67;;;;;;;;;;5035055;28;20947;-58
2021/05/10 11:51:21;;;;;;;2.50;2.30;;;;;;;;;;5045467;28;20456;-58
2021/05/10 11:53:48;;;;;;;15.07;2.30;;;;;;;;;;5045881;28;20479;-60
2021/05/10 11:56:25;;;;;;;6.80;2.03;;;;;;;;;;5045716;28;20534;-60
2021/05/10 11:58:57;;;;;;;4.23;2.10;;;;;;;;;;5037231;28;20448;-63
2021/05/10 12:01:33;;;;;;;7.47;2.27;;;;;;;;;;5038163;28;20475;-61
2021/05/10 12:04:15;;;;;;;7.83;2.40;;;;;;;;;;5050525;28;20447;-60
2021/05/10 12:06:42;;;;;;;2.30;2.00;;;;;;;;;;5041793;28;20457;-61
2021/05/10 12:09:08;;;;;;;7.00;2.27;;;;;;;;;;5034734;28;20441;-60
2021/05/10 12:11:39;;;;;;;2.80;1.57;;;;;;;;;;5034449;28;20479;-60
2021/05/10 12:14:18;;;;;;;3.63;1.70;;;;;;;;;;5034345;28;20483;-61
2021/05/10 12:17:03;;;;;;;3.27;2.20;;;;;;;;;;5038091;28;21036;-60
2021/05/10 12:19:44;;;;;;;3.97;2.30;;;;;;;;;;5048646;28;20507;-61
2021/05/10 12:22:11;;;;;;;4.23;1.93;;;;;;;;;;5034032;28;20465;-60
2021/05/10 12:24:52;;;;;;;4.57;2.13;;;;;;;;;;5042830;28;20463;-61
2021/05/10 12:27:20;;;;;;;4.83;2.00;;;;;;;;;;5054065;28;20432;-60
2021/05/10 12:29:47;;;;;;;4.13;1.73;;;;;;;;;;5045183;28;20453;-61
2021/05/10 12:32:14;;;;;;;3.93;2.10;;;;;;;;;;5038364;28;20692;-60
2021/05/10 12:34:41;;;;;;;4.27;2.20;;;;;;;;;;5035747;28;20455;-60
2021/05/10 12:37:08;;;;;;;2.40;1.93;;;;;;;;;;5037012;28;20455;-60
2021/05/10 12:39:36;;;;;;;3.57;1.87;;;;;;;;;;5054244;28;20443;-60
2021/05/10 12:42:13;;;;;;;2.23;1.77;;;;;;;;;;5051193;28;20505;-60
2021/05/10 12:44:40;;;;;;;9.73;1.87;;;;;;;;;;5052689;28;20474;-60
2021/05/10 12:47:07;;;;;;;5.23;1.87;;;;;;;;;;5048932;28;20469;-60
2021/05/10 12:49:34;;;;;;;3.23;1.83;;;;;;;;;;5042518;28;21008;-60
2021/05/10 12:52:00;;;;;;;3.03;2.00;;;;;;;;;;5053651;28;20999;-61
2021/05/10 12:54:27;;;;;;;2.93;1.70;;;;;;;;;;5053784;28;20535;-61
2021/05/10 12:56:54;;;;;;;3.10;1.90;;;;;;;;;;5053904;28;20451;-60
2021/05/10 12:59:20;;;;;;;3.53;1.57;;;;;;;;;;5035151;28;20522;-62
2021/05/10 13:01:50;;;;;;;3.33;1.93;;;;;;;;;;5042231;28;20467;-62
2021/05/10 13:04:20;;;;;;;3.20;1.50;;;;;;;;;;5063722;28;20494;-62
2021/05/10 13:06:53;;;;;;;2.63;1.53;;;;;;;;;;5066939;28;20432;-61
2021/05/10 13:09:23;;;;;;;1.73;1.33;;;;;;;;;;5038916;28;20488;-61
2021/05/10 13:11:54;;;;;;;3.90;1.70;;;;;;;;;;5037817;28;20480;-62
2021/05/10 13:14:24;;;;;;;4.43;1.60;;;;;;;;;;5045551;28;20448;-61
2021/05/10 13:16:57;;;;;;;4.13;2.00;;;;;;;;;;5042425;28;20980;-62
2021/05/10 13:31:07;;;;;;;4.23;1.70;;;;;;;;;;5053567;28;20452;-61
2021/05/10 13:33:39;;;;;;;4.33;1.67;;;;;;;;;;5048715;28;20484;-62
2021/05/10 13:36:21;;;;;;;4.27;1.90;;;;;;;;;;5032873;28;20433;-61
2021/05/10 13:38:47;;;;;;;2.43;1.53;;;;;;;;;;5034089;28;20471;-61
2021/05/10 13:41:14;;;;;;;4.00;2.20;;;;;;;;;;5033196;28;20452;-61
2021/05/10 13:43:46;;;;;;;5.97;1.70;;;;;;;;;;5033676;28;20448;-61
2021/05/10 13:46:12;;;;;;;6.07;2.80;;;;;;;;;;5032433;28;20486;-61
2021/05/10 13:48:40;;;;;;;5.20;1.90;;;;;;;;;;5034834;28;20506;-61
2021/05/10 13:51:06;;;;;;;3.97;1.97;;;;;;;;;;5036074;28;20471;-61
2021/05/10 13:53:33;;;;;;;7.97;1.97;;;;;;;;;;5045096;28;20525;-61
2021/05/10 13:56:00;;;;;;;5.33;2.37;;;;;;;;;;5053965;28;20758;-61
2021/05/10 13:58:26;;;;;;;2.90;1.80;;;;;;;;;;5045437;28;20453;-61
2021/05/10 14:00:53;;;;;;;3.50;2.07;;;;;;;;;;5032802;28;20463;-61
2021/05/10 14:03:20;;;;;;;3.43;2.40;;;;;;;;;;5038211;28;20491;-61
2021/05/10 14:05:47;;;;;;;3.53;2.07;;;;;;;;;;5032657;28;20516;-61
2021/05/10 14:08:14;;;;;;;4.20;2.50;;;;;;;;;;5032871;28;20464;-61
2021/05/10 14:10:42;;;;;;;4.17;2.10;;;;;;;;;;5032086;28;20455;-61
2021/05/10 14:13:09;;;;;;;6.93;2.53;;;;;;;;;;5032452;28;20542;-61
2021/05/10 14:15:35;;;;;;;3.80;1.80;;;;;;;;;;5032489;28;20453;-61
2021/05/10 14:18:04;;;;;;;4.80;2.67;;;;;;;;;;5033530;28;20464;-61
2021/05/10 14:23:12;;;;;;;5.27;2.40;;;;;;;;;;5032038;28;20506;-61
2021/05/10 14:25:39;;;;;;;4.03;2.10;;;;;;;;;;5032284;28;20451;-61
2021/05/10 14:28:05;;;;;;;3.63;2.00;;;;;;;;;;5033405;28;20808;-61
2021/05/10 14:30:32;;;;;;;4.23;2.27;;;;;;;;;;5032315;28;20448;-61
2021/05/10 14:33:00;;;;;;;6.23;1.80;;;;;;;;;;5045621;28;20480;-61
2021/05/10 14:35:26;;;;;;;3.37;2.00;;;;;;;;;;5031864;28;20471;-61
2021/05/10 14:37:54;;;;;;;4.30;1.67;;;;;;;;;;5032829;28;20453;-61
2021/05/10 14:40:21;;;;;;;4.53;1.90;;;;;;;;;;5052374;28;20534;-61
2021/05/10 14:42:48;;;;;;;3.77;1.87;;;;;;;;;;5074807;22;20451;-67
2021/05/10 14:45:14;;;;;;;2.10;1.90;;;;;;;;;;5064521;28;20466;-67
2021/05/10 14:47:41;;;;;;;7.07;2.20;;;;;;;;;;5067192;28;20955;-68
2021/05/10 14:50:08;;;;;;;6.10;2.03;;;;;;;;;;5071461;28;20455;-67
2021/05/10 14:52:34;;;;;;;2.50;1.77;;;;;;;;;;5070888;28;20565;-67
2021/05/10 14:55:01;;;;;;;5.00;1.73;;;;;;;;;;5052606;28;20487;-67
2021/05/10 14:57:30;;;;;;;5.17;1.90;;;;;;;;;;5054941;28;20528;-68
2021/05/10 14:59:57;;;;;;;2.73;1.90;;;;;;;;;;5064500;28;20547;-67
2021/05/10 15:02:24;;;;;;;2.40;1.73;;;;;;;;;;5056469;28;20803;-66
2021/05/10 15:04:51;;;;;;;3.30;1.60;;;;;;;;;;5055654;28;20549;-67